sensor_id;sensor_type;location;lat;lon;timestamp;pressure;altitude;pressure_sealevel;temperature;humidity
69751;BME280;57335;52.288;6.056;2023-03-04T00:01:21;102630.25;;;4.70;93.39
69751;BME280;57335;52.288;6.056;2023-03-04T00:03:47;102631.56;;;4.65;93.03
69751;BME280;57335;52.288;6.056;2023-03-04T00:06:13;102644.97;;;4.81;94.47
69751;BME280;57335;52.288;6.056;2023-03-04T00:08:40;102641.66;;;4.79;94.33
69751;BME280;57335;52.288;6.056;2023-03-04T00:11:06;102648.75;;;4.77;94.32
69751;BME280;57335;52.288;6.056;2023-03-04T00:13:32;102642.31;;;4.71;94.20
69751;BME280;57335;52.288;6.056;2023-03-04T00:15:59;102656.00;;;4.73;93.25
69751;BME280;57335;52.288;6.056;2023-03-04T00:18:25;102637.66;;;4.75;93.29
69751;BME280;57335;52.288;6.056;2023-03-04T00:20:51;102649.44;;;4.79;93.94
69751;BME280;57335;52.288;6.056;2023-03-04T00:23:18;102632.53;;;4.64;92.69
69751;BME280;57335;52.288;6.056;2023-03-04T00:25:44;102652.91;;;4.79;93.40
69751;BME280;57335;52.288;6.056;2023-03-04T00:28:10;102646.16;;;4.77;94.61
69751;BME280;57335;52.288;6.056;2023-03-04T00:30:36;102648.06;;;4.75;93.94
69751;BME280;57335;52.288;6.056;2023-03-04T00:33:03;102647.69;;;4.79;94.56
69751;BME280;57335;52.288;6.056;2023-03-04T00:35:29;102638.25;;;4.78;94.54
69751;BME280;57335;52.288;6.056;2023-03-04T00:37:56;102632.69;;;4.83;95.21
69751;BME280;57335;52.288;6.056;2023-03-04T00:40:22;102635.31;;;4.83;95.27
69751;BME280;57335;52.288;6.056;2023-03-04T00:42:48;102629.16;;;4.73;95.10
69751;BME280;57335;52.288;6.056;2023-03-04T00:45:14;102633.16;;;4.77;95.42
69751;BME280;57335;52.288;6.056;2023-03-04T00:47:41;102636.03;;;4.74;95.52
69751;BME280;57335;52.288;6.056;2023-03-04T00:50:08;102632.13;;;4.68;95.09
69751;BME280;57335;52.288;6.056;2023-03-04T00:52:34;102628.72;;;4.68;94.98
69751;BME280;57335;52.288;6.056;2023-03-04T00:55:01;102637.66;;;4.75;95.63
69751;BME280;57335;52.288;6.056;2023-03-04T00:57:27;102637.66;;;4.75;95.73
69751;BME280;57335;52.288;6.056;2023-03-04T00:59:53;102640.16;;;4.76;95.59
69751;BME280;57335;52.288;6.056;2023-03-04T01:02:20;102633.53;;;4.72;95.18
69751;BME280;57335;52.288;6.056;2023-03-04T01:04:46;102631.97;;;4.81;95.20
69751;BME280;57335;52.288;6.056;2023-03-04T01:07:13;102638.50;;;4.75;95.05
69751;BME280;57335;52.288;6.056;2023-03-04T01:09:39;102634.84;;;4.67;94.09
69751;BME280;57335;52.288;6.056;2023-03-04T01:12:06;102637.91;;;4.72;94.18
69751;BME280;57335;52.288;6.056;2023-03-04T01:14:33;102626.56;;;4.73;93.93
69751;BME280;57335;52.288;6.056;2023-03-04T01:16:59;102636.34;;;4.80;94.59
69751;BME280;57335;52.288;6.056;2023-03-04T01:19:26;102628.63;;;4.69;94.29
69751;BME280;57335;52.288;6.056;2023-03-04T01:21:52;102626.38;;;4.65;93.14
69751;BME280;57335;52.288;6.056;2023-03-04T01:24:18;102633.66;;;4.71;92.09
69751;BME280;57335;52.288;6.056;2023-03-04T01:26:45;102638.38;;;4.77;92.49
69751;BME280;57335;52.288;6.056;2023-03-04T01:29:11;102634.75;;;4.68;92.27
69751;BME280;57335;52.288;6.056;2023-03-04T01:31:37;102636.03;;;4.74;91.56
69751;BME280;57335;52.288;6.056;2023-03-04T01:34:04;102610.53;;;4.68;90.97
69751;BME280;57335;52.288;6.056;2023-03-04T01:36:30;102631.06;;;4.71;91.08
69751;BME280;57335;52.288;6.056;2023-03-04T01:38:56;102628.81;;;4.77;91.07
69751;BME280;57335;52.288;6.056;2023-03-04T01:41:23;102625.38;;;4.77;90.68
69751;BME280;57335;52.288;6.056;2023-03-04T01:43:51;102608.75;;;4.79;90.96
69751;BME280;57335;52.288;6.056;2023-03-04T01:46:17;102615.84;;;4.77;91.43
69751;BME280;57335;52.288;6.056;2023-03-04T01:48:44;102610.44;;;4.69;90.86
69751;BME280;57335;52.288;6.056;2023-03-04T01:51:15;102592.25;;;4.69;91.88
69751;BME280;57335;52.288;6.056;2023-03-04T01:53:43;102603.47;;;4.70;91.73
69751;BME280;57335;52.288;6.056;2023-03-04T01:56:27;102606.75;;;4.72;91.82
69751;BME280;57335;52.288;6.056;2023-03-04T02:01:36;102601.28;;;4.75;90.01
69751;BME280;57335;52.288;6.056;2023-03-04T02:04:03;102592.50;;;4.66;89.49
69751;BME280;57335;52.288;6.056;2023-03-04T02:06:30;102589.78;;;4.68;90.53
69751;BME280;57335;52.288;6.056;2023-03-04T02:08:57;102592.38;;;4.68;90.40
69751;BME280;57335;52.288;6.056;2023-03-04T02:11:23;102588.56;;;4.72;90.80
69751;BME280;57335;52.288;6.056;2023-03-04T02:13:51;102591.59;;;4.77;91.00
69751;BME280;57335;52.288;6.056;2023-03-04T02:16:18;102581.59;;;4.72;90.53
69751;BME280;57335;52.288;6.056;2023-03-04T02:18:44;102570.31;;;4.62;90.70
69751;BME280;57335;52.288;6.056;2023-03-04T02:21:16;102587.97;;;4.79;91.36
69751;BME280;57335;52.288;6.056;2023-03-04T02:23:59;102577.00;;;4.76;91.35
69751;BME280;57335;52.288;6.056;2023-03-04T02:26:30;102574.63;;;4.73;91.59
69751;BME280;57335;52.288;6.056;2023-03-04T02:28:58;102576.03;;;4.77;90.89
69751;BME280;57335;52.288;6.056;2023-03-04T02:33:57;102566.59;;;4.76;90.97
69751;BME280;57335;52.288;6.056;2023-03-04T02:36:24;102563.50;;;4.82;91.03
69751;BME280;57335;52.288;6.056;2023-03-04T02:38:53;102571.41;;;4.80;90.58
69751;BME280;57335;52.288;6.056;2023-03-04T02:41:24;102553.28;;;4.69;90.10
69751;BME280;57335;52.288;6.056;2023-03-04T02:43:53;102564.69;;;4.78;90.69
69751;BME280;57335;52.288;6.056;2023-03-04T02:46:19;102554.34;;;4.67;91.64
69751;BME280;57335;52.288;6.056;2023-03-04T02:48:46;102554.50;;;4.65;91.60
69751;BME280;57335;52.288;6.056;2023-03-04T02:51:12;102558.69;;;4.77;92.20
69751;BME280;57335;52.288;6.056;2023-03-04T02:53:38;102556.44;;;4.73;91.08
69751;BME280;57335;52.288;6.056;2023-03-04T02:56:05;102558.69;;;4.77;90.92
69751;BME280;57335;52.288;6.056;2023-03-04T02:58:31;102544.66;;;4.69;90.75
69751;BME280;57335;52.288;6.056;2023-03-04T03:00:58;102538.44;;;4.60;91.61
69751;BME280;57335;52.288;6.056;2023-03-04T03:03:24;102554.00;;;4.71;91.32
69751;BME280;57335;52.288;6.056;2023-03-04T03:05:52;102545.03;;;4.64;90.92
69751;BME280;57335;52.288;6.056;2023-03-04T03:08:19;102541.25;;;4.68;90.64
69751;BME280;57335;52.288;6.056;2023-03-04T03:10:46;102544.16;;;4.75;90.88
69751;BME280;57335;52.288;6.056;2023-03-04T03:13:12;102548.63;;;4.84;90.51
69751;BME280;57335;52.288;6.056;2023-03-04T03:15:38;102544.16;;;4.75;90.80
69751;BME280;57335;52.288;6.056;2023-03-04T03:18:04;102546.53;;;4.78;91.11
69751;BME280;57335;52.288;6.056;2023-03-04T03:20:31;102535.44;;;4.76;91.43
69751;BME280;57335;52.288;6.056;2023-03-04T03:22:57;102545.25;;;4.72;91.51
69751;BME280;57335;52.288;6.056;2023-03-04T03:25:23;102526.81;;;4.75;91.81
69751;BME280;57335;52.288;6.056;2023-03-04T03:27:50;102540.63;;;4.76;91.86
69751;BME280;57335;52.288;6.056;2023-03-04T03:30:16;102524.16;;;4.66;91.98
69751;BME280;57335;52.288;6.056;2023-03-04T03:32:43;102519.88;;;4.65;92.01
69751;BME280;57335;52.288;6.056;2023-03-04T03:35:10;102512.38;;;4.62;92.10
69751;BME280;57335;52.288;6.056;2023-03-04T03:37:36;102529.94;;;4.69;92.42
69751;BME280;57335;52.288;6.056;2023-03-04T03:40:03;102522.25;;;4.68;91.83
69751;BME280;57335;52.288;6.056;2023-03-04T03:42:29;102511.56;;;4.61;92.59
69751;BME280;57335;52.288;6.056;2023-03-04T03:44:56;102510.69;;;4.60;93.01
69751;BME280;57335;52.288;6.056;2023-03-04T03:47:22;102514.50;;;4.56;92.83
69751;BME280;57335;52.288;6.056;2023-03-04T03:49:49;102514.78;;;4.53;94.27
69751;BME280;57335;52.288;6.056;2023-03-04T03:52:15;102527.38;;;4.58;94.44
69751;BME280;57335;52.288;6.056;2023-03-04T03:54:41;102513.09;;;4.52;94.36
69751;BME280;57335;52.288;6.056;2023-03-04T03:57:07;102515.47;;;4.55;94.70
69751;BME280;57335;52.288;6.056;2023-03-04T03:59:34;102523.00;;;4.58;95.87
69751;BME280;57335;52.288;6.056;2023-03-04T04:02:00;102507.78;;;4.54;96.15
69751;BME280;57335;52.288;6.056;2023-03-04T04:04:27;102528.69;;;4.52;96.41
69751;BME280;57335;52.288;6.056;2023-03-04T04:06:53;102527.59;;;4.55;96.46
69751;BME280;57335;52.288;6.056;2023-03-04T04:09:19;102519.25;;;4.51;96.07
69751;BME280;57335;52.288;6.056;2023-03-04T04:11:46;102532.69;;;4.56;96.99
69751;BME280;57335;52.288;6.056;2023-03-04T04:14:13;102519.50;;;4.48;97.80
69751;BME280;57335;52.288;6.056;2023-03-04T04:16:40;102525.28;;;4.52;98.17
69751;BME280;57335;52.288;6.056;2023-03-04T04:19:06;102507.00;;;4.42;98.88
69751;BME280;57335;52.288;6.056;2023-03-04T04:21:33;102515.13;;;4.49;99.00
69751;BME280;57335;52.288;6.056;2023-03-04T04:23:59;102523.50;;;4.52;99.03
69751;BME280;57335;52.288;6.056;2023-03-04T04:26:25;102516.19;;;4.46;99.02
69751;BME280;57335;52.288;6.056;2023-03-04T04:28:52;102520.88;;;4.52;98.93
69751;BME280;57335;52.288;6.056;2023-03-04T04:31:18;102522.19;;;4.58;98.17
69751;BME280;57335;52.288;6.056;2023-03-04T04:33:44;102515.97;;;4.49;98.53
69751;BME280;57335;52.288;6.056;2023-03-04T04:36:14;102517.56;;;4.62;97.77
69751;BME280;57335;52.288;6.056;2023-03-04T04:38:40;102509.88;;;4.60;97.42
69751;BME280;57335;52.288;6.056;2023-03-04T04:41:18;102517.91;;;4.57;97.45
69751;BME280;57335;52.288;6.056;2023-03-04T04:43:45;102511.69;;;4.48;97.36
69751;BME280;57335;52.288;6.056;2023-03-04T04:46:12;102524.78;;;4.58;97.09
69751;BME280;57335;52.288;6.056;2023-03-04T04:48:38;102525.38;;;4.50;96.79
69751;BME280;57335;52.288;6.056;2023-03-04T04:51:05;102522.19;;;4.58;96.74
69751;BME280;57335;52.288;6.056;2023-03-04T04:53:31;102514.78;;;4.53;96.23
69751;BME280;57335;52.288;6.056;2023-03-04T04:55:57;102522.06;;;4.59;96.28
69751;BME280;57335;52.288;6.056;2023-03-04T04:58:24;102510.13;;;4.57;96.10
69751;BME280;57335;52.288;6.056;2023-03-04T05:00:50;102518.00;;;4.67;95.49
69751;BME280;57335;52.288;6.056;2023-03-04T05:03:17;102522.38;;;4.66;95.30
69751;BME280;57335;52.288;6.056;2023-03-04T05:05:44;102518.59;;;4.59;94.46
69751;BME280;57335;52.288;6.056;2023-03-04T05:08:10;102516.59;;;4.63;94.88
69751;BME280;57335;52.288;6.056;2023-03-04T05:10:36;102531.94;;;4.66;95.41
69751;BME280;57335;52.288;6.056;2023-03-04T05:13:03;102525.97;;;4.75;95.45
69751;BME280;57335;52.288;6.056;2023-03-04T05:15:29;102519.84;;;4.76;94.67
69751;BME280;57335;52.288;6.056;2023-03-04T05:17:55;102508.88;;;4.72;94.38
69751;BME280;57335;52.288;6.056;2023-03-04T05:20:22;102511.66;;;4.80;94.59
69751;BME280;57335;52.288;6.056;2023-03-04T05:22:48;102504.56;;;4.83;94.44
69751;BME280;57335;52.288;6.056;2023-03-04T05:25:14;102518.84;;;4.88;94.10
69751;BME280;57335;52.288;6.056;2023-03-04T05:27:41;102510.91;;;4.90;94.28
69751;BME280;57335;52.288;6.056;2023-03-04T05:30:08;102512.44;;;4.92;94.05
69751;BME280;57335;52.288;6.056;2023-03-04T05:32:34;102514.09;;;4.93;93.82
69751;BME280;57335;52.288;6.056;2023-03-04T05:35:00;102513.25;;;4.93;93.81
69751;BME280;57335;52.288;6.056;2023-03-04T05:37:27;102505.84;;;4.88;94.34
69751;BME280;57335;52.288;6.056;2023-03-04T05:39:53;102514.09;;;4.93;94.00
69751;BME280;57335;52.288;6.056;2023-03-04T05:42:19;102515.72;;;4.94;94.21
69751;BME280;57335;52.288;6.056;2023-03-04T05:44:46;102517.50;;;4.94;94.43
69751;BME280;57335;52.288;6.056;2023-03-04T05:47:12;102497.47;;;4.85;93.99
69751;BME280;57335;52.288;6.056;2023-03-04T05:49:38;102518.31;;;4.94;94.10
69751;BME280;57335;52.288;6.056;2023-03-04T05:52:04;102523.53;;;4.94;94.18
69751;BME280;57335;52.288;6.056;2023-03-04T05:54:31;102515.03;;;4.92;94.19
69751;BME280;57335;52.288;6.056;2023-03-04T05:56:57;102521.19;;;4.91;95.10
69751;BME280;57335;52.288;6.056;2023-03-04T05:59:23;102510.22;;;4.88;94.66
69751;BME280;57335;52.288;6.056;2023-03-04T06:01:50;102504.56;;;4.83;95.08
69751;BME280;57335;52.288;6.056;2023-03-04T06:04:16;102517.31;;;4.86;95.56
69751;BME280;57335;52.288;6.056;2023-03-04T06:06:42;102518.25;;;4.85;95.66
69751;BME280;57335;52.288;6.056;2023-03-04T06:09:09;102520.63;;;4.88;95.53
69751;BME280;57335;52.288;6.056;2023-03-04T06:11:35;102507.28;;;4.81;95.23
69751;BME280;57335;52.288;6.056;2023-03-04T06:14:02;102511.09;;;4.77;96.02
69751;BME280;57335;52.288;6.056;2023-03-04T06:16:28;102501.66;;;4.76;96.79
69751;BME280;57335;52.288;6.056;2023-03-04T06:18:55;102520.16;;;4.83;97.20
69751;BME280;57335;52.288;6.056;2023-03-04T06:21:21;102511.25;;;4.75;99.16
69751;BME280;57335;52.288;6.056;2023-03-04T06:23:48;102521.75;;;4.74;100.00
69751;BME280;57335;52.288;6.056;2023-03-04T06:26:14;102525.28;;;4.73;100.00
69751;BME280;57335;52.288;6.056;2023-03-04T06:28:41;102517.13;;;4.77;100.00
69751;BME280;57335;52.288;6.056;2023-03-04T06:31:08;102519.84;;;4.76;99.83
69751;BME280;57335;52.288;6.056;2023-03-04T06:33:34;102526.31;;;4.82;99.38
69751;BME280;57335;52.288;6.056;2023-03-04T06:36:01;102512.06;;;4.76;99.12
69751;BME280;57335;52.288;6.056;2023-03-04T06:38:27;102517.25;;;4.76;99.33
69751;BME280;57335;52.288;6.056;2023-03-04T06:40:54;102517.13;;;4.77;98.98
69751;BME280;57335;52.288;6.056;2023-03-04T06:43:22;102524.31;;;4.85;98.57
69751;BME280;57335;52.288;6.056;2023-03-04T06:45:49;102513.31;;;4.82;98.10
69751;BME280;57335;52.288;6.056;2023-03-04T06:48:15;102519.53;;;4.90;97.99
69751;BME280;57335;52.288;6.056;2023-03-04T06:50:41;102522.41;;;4.87;97.69
69751;BME280;57335;52.288;6.056;2023-03-04T06:53:08;102531.31;;;4.94;97.77
69751;BME280;57335;52.288;6.056;2023-03-04T06:55:34;102527.78;;;4.95;97.98
69751;BME280;57335;52.288;6.056;2023-03-04T06:58:00;102533.41;;;5.00;97.92
69751;BME280;57335;52.288;6.056;2023-03-04T07:00:27;102532.31;;;5.03;97.67
69751;BME280;57335;52.288;6.056;2023-03-04T07:02:53;102536.19;;;5.09;97.42
69751;BME280;57335;52.288;6.056;2023-03-04T07:05:20;102531.56;;;5.12;97.31
69751;BME280;57335;52.288;6.056;2023-03-04T07:07:46;102513.06;;;5.06;97.32
69751;BME280;57335;52.288;6.056;2023-03-04T07:10:13;102519.97;;;5.16;97.48
69751;BME280;57335;52.288;6.056;2023-03-04T07:12:39;102531.91;;;5.29;97.68
69751;BME280;57335;52.288;6.056;2023-03-04T07:15:06;102520.81;;;5.27;97.40
69751;BME280;57335;52.288;6.056;2023-03-04T07:17:32;102532.78;;;5.39;97.31
69751;BME280;57335;52.288;6.056;2023-03-04T07:19:59;102531.56;;;5.43;97.77
69751;BME280;57335;52.288;6.056;2023-03-04T07:22:25;102535.59;;;5.47;97.88
69751;BME280;57335;52.288;6.056;2023-03-04T07:24:51;102536.41;;;5.48;98.02
69751;BME280;57335;52.288;6.056;2023-03-04T07:27:18;102540.81;;;5.57;98.21
69751;BME280;57335;52.288;6.056;2023-03-04T07:29:44;102535.47;;;5.58;99.22
69751;BME280;57335;52.288;6.056;2023-03-04T07:32:10;102538.06;;;5.58;99.82
69751;BME280;57335;52.288;6.056;2023-03-04T07:34:37;102544.09;;;5.59;100.00
69751;BME280;57335;52.288;6.056;2023-03-04T07:37:03;102543.28;;;5.58;100.00
69751;BME280;57335;52.288;6.056;2023-03-04T07:39:29;102548.78;;;5.65;100.00
69751;BME280;57335;52.288;6.056;2023-03-04T07:41:56;102542.19;;;5.61;100.00
69751;BME280;57335;52.288;6.056;2023-03-04T07:44:22;102550.31;;;5.68;100.00
69751;BME280;57335;52.288;6.056;2023-03-04T07:46:48;102535.06;;;5.63;100.00
69751;BME280;57335;52.288;6.056;2023-03-04T07:49:15;102544.69;;;5.72;100.00
69751;BME280;57335;52.288;6.056;2023-03-04T07:51:41;102542.13;;;5.82;100.00
69751;BME280;57335;52.288;6.056;2023-03-04T07:54:08;102536.13;;;5.82;100.00
69751;BME280;57335;52.288;6.056;2023-03-04T07:56:34;102528.59;;;5.88;100.00
69751;BME280;57335;52.288;6.056;2023-03-04T07:59:01;102538.09;;;5.99;100.00
69751;BME280;57335;52.288;6.056;2023-03-04T08:01:33;102544.56;;;6.14;100.00
69751;BME280;57335;52.288;6.056;2023-03-04T08:04:01;102544.31;;;6.37;100.00
69751;BME280;57335;52.288;6.056;2023-03-04T08:06:28;102536.66;;;6.45;98.85
69751;BME280;57335;52.288;6.056;2023-03-04T08:09:03;102545.69;;;6.61;99.29
69751;BME280;57335;52.288;6.056;2023-03-04T08:11:31;102549.25;;;6.69;98.30
69751;BME280;57335;52.288;6.056;2023-03-04T08:13:57;102545.69;;;6.61;98.17
69751;BME280;57335;52.288;6.056;2023-03-04T08:16:24;102547.06;;;6.65;97.81
69751;BME280;57335;52.288;6.056;2023-03-04T08:18:53;102536.25;;;6.59;98.34
69751;BME280;57335;52.288;6.056;2023-03-04T08:21:21;102548.31;;;6.70;98.93
69751;BME280;57335;52.288;6.056;2023-03-04T08:23:48;102544.34;;;6.76;97.46
69751;BME280;57335;52.288;6.056;2023-03-04T08:26:27;102540.50;;;6.80;97.33
69751;BME280;57335;52.288;6.056;2023-03-04T08:28:54;102547.72;;;7.06;97.54
69751;BME280;57335;52.288;6.056;2023-03-04T08:31:21;102543.13;;;7.27;96.70
69751;BME280;57335;52.288;6.056;2023-03-04T08:33:48;102553.53;;;7.37;94.89
69751;BME280;57335;52.288;6.056;2023-03-04T08:36:14;102555.53;;;7.53;94.95
69751;BME280;57335;52.288;6.056;2023-03-04T08:38:41;102552.66;;;7.56;94.68
69751;BME280;57335;52.288;6.056;2023-03-04T08:41:08;102552.69;;;7.46;94.19
69751;BME280;57335;52.288;6.056;2023-03-04T08:43:34;102548.56;;;7.44;94.26
69751;BME280;57335;52.288;6.056;2023-03-04T08:46:01;102537.69;;;7.11;95.84
69751;BME280;57335;52.288;6.056;2023-03-04T08:48:27;102549.03;;;7.19;97.83
69751;BME280;57335;52.288;6.056;2023-03-04T08:50:54;102541.09;;;7.21;96.16
69751;BME280;57335;52.288;6.056;2023-03-04T08:53:20;102551.50;;;7.21;95.87
69751;BME280;57335;52.288;6.056;2023-03-04T08:55:47;102547.97;;;7.12;97.56
69751;BME280;57335;52.288;6.056;2023-03-04T08:58:15;102553.84;;;7.24;99.02
69751;BME280;57335;52.288;6.056;2023-03-04T09:00:43;102542.81;;;7.40;97.91
69751;BME280;57335;52.288;6.056;2023-03-04T09:03:11;102543.22;;;7.35;97.91
69751;BME280;57335;52.288;6.056;2023-03-04T09:05:37;102538.38;;;7.50;97.36
69751;BME280;57335;52.288;6.056;2023-03-04T09:08:04;102544.16;;;7.54;95.83
69751;BME280;57335;52.288;6.056;2023-03-04T09:10:31;102541.16;;;7.76;95.20
69751;BME280;57335;52.288;6.056;2023-03-04T09:12:57;102532.25;;;7.69;94.52
69751;BME280;57335;52.288;6.056;2023-03-04T09:15:24;102528.41;;;7.91;95.20
69751;BME280;57335;52.288;6.056;2023-03-04T09:17:50;102538.22;;;8.25;93.24
69751;BME280;57335;52.288;6.056;2023-03-04T09:20:16;102537.81;;;8.66;90.10
69751;BME280;57335;52.288;6.056;2023-03-04T09:22:43;102528.88;;;8.94;90.02
69751;BME280;57335;52.288;6.056;2023-03-04T09:25:12;102529.03;;;9.19;88.88
69751;BME280;57335;52.288;6.056;2023-03-04T09:27:39;102529.31;;;9.16;85.49
69751;BME280;57335;52.288;6.056;2023-03-04T09:30:07;102533.34;;;9.28;85.79
69751;BME280;57335;52.288;6.056;2023-03-04T09:32:34;102531.38;;;9.30;84.03
69751;BME280;57335;52.288;6.056;2023-03-04T09:35:00;102538.63;;;8.84;85.59
69751;BME280;57335;52.288;6.056;2023-03-04T09:37:27;102528.63;;;8.62;87.88
69751;BME280;57335;52.288;6.056;2023-03-04T09:39:53;102540.75;;;8.45;89.01
69751;BME280;57335;52.288;6.056;2023-03-04T09:42:29;102538.59;;;8.12;89.95
69751;BME280;57335;52.288;6.056;2023-03-04T09:44:59;102534.03;;;7.69;93.73
69751;BME280;57335;52.288;6.056;2023-03-04T09:47:25;102529.25;;;7.36;96.16
69751;BME280;57335;52.288;6.056;2023-03-04T09:50:02;102539.25;;;7.31;97.59
69751;BME280;57335;52.288;6.056;2023-03-04T09:55:33;102532.34;;;7.50;98.50
69751;BME280;57335;52.288;6.056;2023-03-04T10:06:10;102548.00;;;6.73;100.00
69751;BME280;57335;52.288;6.056;2023-03-04T10:08:42;102540.34;;;6.62;100.00
69751;BME280;57335;52.288;6.056;2023-03-04T10:11:14;102540.34;;;6.72;100.00
69751;BME280;57335;52.288;6.056;2023-03-04T10:16:24;102530.78;;;7.19;100.00
69751;BME280;57335;52.288;6.056;2023-03-04T10:19:17;102523.56;;;7.51;100.00
69751;BME280;57335;52.288;6.056;2023-03-04T10:21:47;102511.75;;;7.47;100.00
69751;BME280;57335;52.288;6.056;2023-03-04T10:24:17;102532.28;;;7.59;100.00
69751;BME280;57335;52.288;6.056;2023-03-04T10:26:46;102519.09;;;7.61;100.00
69751;BME280;57335;52.288;6.056;2023-03-04T10:29:17;102506.81;;;7.44;97.85
69751;BME280;57335;52.288;6.056;2023-03-04T10:31:44;102527.44;;;7.37;99.41
69751;BME280;57335;52.288;6.056;2023-03-04T10:34:13;102530.38;;;7.24;99.83
69751;BME280;57335;52.288;6.056;2023-03-04T10:36:52;102524.50;;;7.12;100.00
69751;BME280;57335;52.288;6.056;2023-03-04T10:39:27;102526.72;;;7.07;100.00
69751;BME280;57335;52.288;6.056;2023-03-04T10:42:03;102520.00;;;6.95;100.00
69751;BME280;57335;52.288;6.056;2023-03-04T10:44:32;102518.41;;;6.74;100.00
69751;BME280;57335;52.288;6.056;2023-03-04T10:46:59;102518.53;;;6.73;100.00
69751;BME280;57335;52.288;6.056;2023-03-04T10:49:27;102528.97;;;6.73;100.00
69751;BME280;57335;52.288;6.056;2023-03-04T10:52:01;102524.31;;;6.67;100.00
69751;BME280;57335;52.288;6.056;2023-03-04T10:54:46;102528.97;;;6.63;100.00
69751;BME280;57335;52.288;6.056;2023-03-04T11:02:24;102527.28;;;7.01;100.00
69751;BME280;57335;52.288;6.056;2023-03-04T11:07:38;102517.75;;;7.19;100.00
69751;BME280;57335;52.288;6.056;2023-03-04T11:10:23;102514.72;;;7.24;100.00
69751;BME280;57335;52.288;6.056;2023-03-04T11:13:05;102512.03;;;7.16;100.00
69751;BME280;57335;52.288;6.056;2023-03-04T11:15:56;102508.34;;;6.89;100.00
69751;BME280;57335;52.288;6.056;2023-03-04T11:18:46;102519.91;;;6.77;100.00
69751;BME280;57335;52.288;6.056;2023-03-04T11:21:16;102515.94;;;6.73;100.00
69751;BME280;57335;52.288;6.056;2023-03-04T11:26:23;102505.91;;;6.88;100.00
69751;BME280;57335;52.288;6.056;2023-03-04T11:28:59;102508.91;;;6.93;100.00
69751;BME280;57335;52.288;6.056;2023-03-04T11:31:32;102501.47;;;7.08;100.00
69751;BME280;57335;52.288;6.056;2023-03-04T11:34:04;102508.47;;;7.07;100.00
69751;BME280;57335;52.288;6.056;2023-03-04T11:39:28;102515.94;;;6.53;98.34
69751;BME280;57335;52.288;6.056;2023-03-04T11:42:02;102514.19;;;6.44;99.02
69751;BME280;57335;52.288;6.056;2023-03-04T11:44:30;102496.06;;;6.33;99.26
69751;BME280;57335;52.288;6.056;2023-03-04T11:47:10;102500.06;;;6.37;100.00
69751;BME280;57335;52.288;6.056;2023-03-04T11:52:51;102494.59;;;6.50;99.54
69751;BME280;57335;52.288;6.056;2023-03-04T11:55:33;102485.09;;;6.49;99.78
69751;BME280;57335;52.288;6.056;2023-03-04T11:58:05;102493.34;;;6.64;100.00
69751;BME280;57335;52.288;6.056;2023-03-04T12:00:42;102494.25;;;6.82;100.00
69751;BME280;57335;52.288;6.056;2023-03-04T12:03:46;102499.19;;;6.85;99.34
69751;BME280;57335;52.288;6.056;2023-03-04T12:09:32;102491.19;;;7.06;99.99
69751;BME280;57335;52.288;6.056;2023-03-04T12:12:24;102480.91;;;7.05;100.00
69751;BME280;57335;52.288;6.056;2023-03-04T12:15:22;102481.72;;;6.95;99.52
69751;BME280;57335;52.288;6.056;2023-03-04T12:18:08;102476.88;;;6.63;93.72
69751;BME280;57335;52.288;6.056;2023-03-04T12:26:41;102483.03;;;6.72;91.43
69751;BME280;57335;52.288;6.056;2023-03-04T12:31:49;102467.34;;;6.91;90.53
69751;BME280;57335;52.288;6.056;2023-03-04T12:34:46;102468.78;;;7.13;86.40
69751;BME280;57335;52.288;6.056;2023-03-04T12:37:58;102467.66;;;7.26;85.08
69751;BME280;57335;52.288;6.056;2023-03-04T12:40:37;102461.03;;;7.31;84.56
69751;BME280;57335;52.288;6.056;2023-03-04T12:43:26;102463.13;;;7.28;82.40
69751;BME280;57335;52.288;6.056;2023-03-04T12:56:20;102460.16;;;7.41;81.87
69751;BME280;57335;52.288;6.056;2023-03-04T12:58:48;102455.81;;;7.31;83.25
69751;BME280;57335;52.288;6.056;2023-03-04T13:01:20;102442.13;;;7.19;81.55
69751;BME280;57335;52.288;6.056;2023-03-04T13:04:10;102439.78;;;7.26;83.11
69751;BME280;57335;52.288;6.056;2023-03-04T13:06:48;102449.38;;;7.53;84.08
69751;BME280;57335;52.288;6.056;2023-03-04T13:09:22;102441.22;;;7.66;82.46
69751;BME280;57335;52.288;6.056;2023-03-04T13:16:50;102434.44;;;7.73;79.94
69751;BME280;57335;52.288;6.056;2023-03-04T13:22:01;102434.81;;;7.61;80.46
69751;BME280;57335;52.288;6.056;2023-03-04T13:24:55;102427.63;;;7.45;79.76
69751;BME280;57335;52.288;6.056;2023-03-04T13:27:48;102427.97;;;7.32;82.17
69751;BME280;57335;52.288;6.056;2023-03-04T13:32:57;102427.06;;;6.86;83.01
69751;BME280;57335;52.288;6.056;2023-03-04T14:04:21;102386.41;;;7.48;81.50
69751;BME280;57335;52.288;6.056;2023-03-04T14:06:50;102397.44;;;7.42;80.41
69751;BME280;57335;52.288;6.056;2023-03-04T14:09:28;102409.34;;;7.45;81.97
69751;BME280;57335;52.288;6.056;2023-03-04T14:12:11;102390.53;;;7.23;81.63
69751;BME280;57335;52.288;6.056;2023-03-04T14:14:44;102394.94;;;7.23;80.81
69751;BME280;57335;52.288;6.056;2023-03-04T14:17:19;102400.19;;;7.13;82.55
69751;BME280;57335;52.288;6.056;2023-03-04T14:19:47;102390.09;;;7.00;83.18
69751;BME280;57335;52.288;6.056;2023-03-04T14:22:22;102394.91;;;6.95;85.81
69751;BME280;57335;52.288;6.056;2023-03-04T14:24:56;102396.75;;;6.75;86.03
69751;BME280;57335;52.288;6.056;2023-03-04T14:27:22;102388.09;;;6.84;86.32
69751;BME280;57335;52.288;6.056;2023-03-04T14:29:56;102384.63;;;6.93;86.56
69751;BME280;57335;52.288;6.056;2023-03-04T14:32:24;102381.88;;;6.95;86.53
69751;BME280;57335;52.288;6.056;2023-03-04T14:34:56;102385.69;;;7.01;85.74
69751;BME280;57335;52.288;6.056;2023-03-04T14:37:39;102373.34;;;7.03;85.91
69751;BME280;57335;52.288;6.056;2023-03-04T14:40:18;102375.13;;;7.02;85.86
69751;BME280;57335;52.288;6.056;2023-03-04T14:42:46;102372.66;;;7.01;84.49
69751;BME280;57335;52.288;6.056;2023-03-04T14:45:14;102369.84;;;6.84;84.36